Time;durP1;ratioP1;P1;durP2;ratioP2;P2;SDS_P1;SDS_P2;PMS_P1;PMS_P2;Temp;Humidity;BMP_temperature;BMP_pressure;BME280_temperature;BME280_humidity;BME280_pressure;Samples;Min_cycle;Max_cycle;Signal;HPM_P1;HPM_P2
2022/01/30 00:00:24;;;;;;;8.30;5.03;;;6.10;99.90;;;;;;5266009;27;20189;-64
2022/01/30 00:02:51;;;;;;;7.87;4.87;;;6.10;99.90;;;;;;5265941;27;20146;-65
2022/01/30 00:05:19;;;;;;;6.07;3.97;;;6.10;99.90;;;;;;5286520;27;20145;-65
2022/01/30 00:07:46;;;;;;;5.80;3.90;;;6.20;99.90;;;;;;5331041;27;20515;-64
2022/01/30 00:10:16;;;;;;;5.90;4.00;;;6.20;99.90;;;;;;5329885;27;20130;-65
2022/01/30 00:12:55;;;;;;;6.33;4.10;;;6.20;99.90;;;;;;5329104;27;20138;-65
2022/01/30 00:15:35;;;;;;;4.87;3.50;;;6.20;99.90;;;;;;5330428;26;20121;-65
2022/01/30 00:18:15;;;;;;;5.13;3.43;;;6.20;99.90;;;;;;5330777;27;20474;-64
2022/01/30 00:20:48;;;;;;;5.50;3.10;;;6.20;99.90;;;;;;5328325;27;20138;-65
2022/01/30 00:23:22;;;;;;;5.13;3.27;;;6.20;99.90;;;;;;5328281;27;20445;-65
2022/01/30 00:25:52;;;;;;;4.50;3.00;;;6.20;99.90;;;;;;5328740;27;20140;-64
2022/01/30 00:28:22;;;;;;;4.00;2.33;;;6.20;99.90;;;;;;5331520;27;20148;-64
2022/01/30 00:30:49;;;;;;;3.37;2.10;;;6.10;99.90;;;;;;5328958;27;20235;-64
2022/01/30 00:33:16;;;;;;;4.13;2.13;;;6.00;99.90;;;;;;5328340;27;20142;-65
2022/01/30 00:35:43;;;;;;;4.30;2.37;;;5.90;99.90;;;;;;5328453;27;20154;-65
2022/01/30 00:38:16;;;;;;;3.97;1.60;;;5.80;99.90;;;;;;5328323;27;20180;-65
2022/01/30 00:40:45;;;;;;;5.30;1.40;;;5.70;99.90;;;;;;5328348;27;20157;-65
2022/01/30 00:43:13;;;;;;;4.30;1.50;;;5.70;99.90;;;;;;5329067;27;20190;-65
2022/01/30 00:45:40;;;;;;;2.53;1.20;;;5.70;99.90;;;;;;5330390;27;20193;-65
2022/01/30 00:48:08;;;;;;;3.20;1.20;;;5.70;99.90;;;;;;5330748;26;20110;-65
2022/01/30 00:50:36;;;;;;;4.43;1.33;;;5.60;99.90;;;;;;5330416;26;20122;-66
2022/01/30 00:53:04;;;;;;;2.83;0.90;;;5.60;99.90;;;;;;5328499;27;20138;-65
2022/01/30 00:55:32;;;;;;;4.30;1.20;;;5.70;99.90;;;;;;5330751;26;20180;-65
2022/01/30 00:58:00;;;;;;;5.13;1.30;;;5.80;99.90;;;;;;5330605;26;20367;-65
2022/01/30 01:00:27;;;;;;;2.57;1.03;;;5.60;99.90;;;;;;5328972;27;20184;-65
2022/01/30 01:02:54;;;;;;;2.63;1.30;;;5.60;99.90;;;;;;5330038;26;20117;-65
2022/01/30 01:05:22;;;;;;;5.50;1.30;;;5.60;99.90;;;;;;5330609;27;20193;-65
2022/01/30 01:07:52;;;;;;;3.83;1.10;;;5.50;99.90;;;;;;5327996;27;20423;-66
2022/01/30 01:23:53;;;;;;;5.50;1.30;;;5.00;99.90;;;;;;5329759;27;20166;-65
2022/01/30 01:26:22;;;;;;;6.67;1.30;;;4.90;99.90;;;;;;5329538;27;20180;-66
2022/01/30 01:28:49;;;;;;;4.93;1.30;;;4.90;99.90;;;;;;5327992;27;20142;-65
2022/01/30 01:31:16;;;;;;;4.07;1.30;;;4.90;99.90;;;;;;5330392;27;20149;-65
2022/01/30 01:36:30;;;;;;;6.30;1.30;;;4.80;99.90;;;;;;5330688;27;20155;-65
2022/01/30 01:38:57;;;;;;;7.10;1.37;;;4.80;99.90;;;;;;5311824;27;20153;-66
2022/01/30 01:41:26;;;;;;;5.87;1.23;;;4.80;99.90;;;;;;5330102;27;20134;-65
2022/01/30 01:43:53;;;;;;;5.50;1.33;;;4.80;99.90;;;;;;5330497;27;20153;-65
2022/01/30 01:46:35;;;;;;;11.90;1.53;;;4.80;99.90;;;;;;5329898;27;20181;-65
2022/01/30 01:49:02;;;;;;;4.97;1.20;;;4.80;99.90;;;;;;5329622;27;20190;-65
2022/01/30 01:51:31;;;;;;;5.37;1.57;;;4.80;99.90;;;;;;5329744;27;20162;-65
2022/01/30 01:53:59;;;;;;;6.97;1.47;;;4.80;99.90;;;;;;5329862;27;20160;-65
2022/01/30 01:56:28;;;;;;;9.77;3.50;;;4.80;99.90;;;;;;5330583;27;20137;-65
2022/01/30 01:58:55;;;;;;;8.47;1.40;;;4.80;99.90;;;;;;5332675;26;20129;-65
2022/01/30 02:01:24;;;;;;;6.70;2.07;;;4.80;99.90;;;;;;5331676;27;20141;-65
2022/01/30 02:03:54;;;;;;;7.07;1.60;;;4.90;99.90;;;;;;5330341;27;20229;-65
2022/01/30 02:06:23;;;;;;;7.17;1.60;;;4.80;99.90;;;;;;5330264;27;20185;-66
2022/01/30 02:08:58;;;;;;;12.67;1.60;;;4.90;99.90;;;;;;5329453;27;20203;-66
2022/01/30 02:27:47;;;;;;;8.80;1.77;;;4.70;99.90;;;;;;5330771;27;20153;-66
2022/01/30 02:30:19;;;;;;;9.17;1.90;;;4.70;99.90;;;;;;5330486;27;20154;-66
2022/01/30 02:32:47;;;;;;;6.70;1.80;;;4.70;99.90;;;;;;5330358;27;20173;-65
2022/01/30 02:35:15;;;;;;;7.87;1.80;;;4.60;99.90;;;;;;5329335;27;20157;-65
2022/01/30 02:37:42;;;;;;;8.73;1.90;;;4.50;99.90;;;;;;5330517;26;20216;-67
2022/01/30 02:40:12;;;;;;;8.63;1.70;;;4.50;99.90;;;;;;5330269;27;20413;-66
2022/01/30 02:42:47;;;;;;;8.07;1.70;;;4.50;99.90;;;;;;5330253;27;20184;-65
2022/01/30 02:45:16;;;;;;;11.37;1.90;;;4.50;99.90;;;;;;5329761;27;20188;-66
2022/01/30 02:48:11;;;;;;;12.80;2.53;;;4.50;99.90;;;;;;5329321;27;20141;-66
2022/01/30 02:50:51;;;;;;;11.87;1.90;;;4.50;99.90;;;;;;5330827;27;20162;-66
2022/01/30 02:53:18;;;;;;;9.33;1.90;;;4.50;99.90;;;;;;5330269;27;20217;-66
2022/01/30 02:55:46;;;;;;;9.10;1.87;;;4.60;99.90;;;;;;5331539;26;20122;-66
2022/01/30 02:58:13;;;;;;;12.50;1.90;;;4.60;99.90;;;;;;5332950;27;20158;-66
2022/01/30 03:00:40;;;;;;;11.80;2.03;;;4.70;99.90;;;;;;5329383;27;20205;-66
2022/01/30 03:03:07;;;;;;;10.43;2.03;;;4.70;99.90;;;;;;5329380;27;20169;-66
2022/01/30 03:05:40;;;;;;;10.57;2.17;;;4.70;99.90;;;;;;5330132;27;20142;-66
2022/01/30 03:08:08;;;;;;;8.83;2.30;;;4.60;99.90;;;;;;5328755;27;20567;-66
2022/01/30 03:10:35;;;;;;;11.43;1.90;;;4.50;99.90;;;;;;5329423;27;20169;-66
2022/01/30 03:13:03;;;;;;;9.83;1.93;;;4.40;99.90;;;;;;5330051;27;20212;-66
2022/01/30 03:15:30;;;;;;;10.33;1.67;;;4.30;99.90;;;;;;5330655;27;20163;-65
2022/01/30 03:17:57;;;;;;;10.53;2.00;;;4.10;99.90;;;;;;5331019;27;20191;-66
2022/01/30 03:20:27;;;;;;;10.43;1.97;;;3.80;99.90;;;;;;5329658;27;20170;-65
2022/01/30 03:22:55;;;;;;;7.67;1.50;;;3.60;99.90;;;;;;5331485;27;20157;-65
2022/01/30 03:25:22;;;;;;;9.43;2.20;;;3.30;99.90;;;;;;5333100;27;20181;-65
2022/01/30 03:27:52;;;;;;;7.03;1.53;;;3.10;99.90;;;;;;5329076;27;20185;-65
2022/01/30 03:30:26;;;;;;;13.67;2.00;;;3.00;99.90;;;;;;5329605;27;20141;-65
2022/01/30 03:32:53;;;;;;;8.60;1.50;;;2.90;99.90;;;;;;5328974;27;20167;-65
2022/01/30 03:35:21;;;;;;;5.13;1.30;;;2.70;99.90;;;;;;5331038;27;20121;-64
2022/01/30 03:37:48;;;;;;;5.40;1.20;;;2.40;99.90;;;;;;5328745;27;20498;-64
2022/01/30 03:40:15;;;;;;;6.00;1.20;;;2.20;99.90;;;;;;5328903;27;20173;-64
2022/01/30 03:42:43;;;;;;;8.60;1.77;;;2.20;99.90;;;;;;5329838;27;20165;-64
2022/01/30 03:45:10;;;;;;;5.93;1.40;;;2.20;99.90;;;;;;5328847;27;20419;-64
2022/01/30 03:47:37;;;;;;;7.67;1.50;;;2.40;99.90;;;;;;5330039;27;20141;-64
2022/01/30 03:50:05;;;;;;;8.40;1.33;;;2.40;99.90;;;;;;5329510;27;20141;-64
2022/01/30 03:52:32;;;;;;;5.33;1.10;;;2.40;99.90;;;;;;5328721;27;20185;-65
2022/01/30 03:54:59;;;;;;;4.03;1.00;;;2.40;99.90;;;;;;5331514;27;20137;-64
2022/01/30 03:57:26;;;;;;;5.50;1.20;;;2.40;99.90;;;;;;5331115;27;20498;-64
2022/01/30 03:59:53;;;;;;;4.43;1.50;;;2.60;99.90;;;;;;5330629;27;20175;-64
2022/01/30 04:02:20;;;;;;;3.40;1.20;;;2.60;99.90;;;;;;5329950;27;20145;-64
2022/01/30 04:04:47;;;;;;;6.30;1.53;;;2.60;99.90;;;;;;5329157;27;20153;-64
2022/01/30 04:07:15;;;;;;;7.53;1.57;;;2.60;99.90;;;;;;5330589;27;20192;-64
2022/01/30 04:09:42;;;;;;;10.07;1.77;;;2.60;99.90;;;;;;5329807;27;20177;-64
2022/01/30 04:12:10;;;;;;;10.80;1.83;;;2.60;99.90;;;;;;5328692;27;20137;-64
2022/01/30 04:14:37;;;;;;;10.97;2.03;;;2.70;99.90;;;;;;5328399;27;20137;-64
2022/01/30 04:17:07;;;;;;;10.43;2.57;;;2.70;99.90;;;;;;5329112;27;20140;-64
2022/01/30 04:19:34;;;;;;;10.93;2.20;;;2.80;99.90;;;;;;5329019;27;20409;-64
2022/01/30 04:22:01;;;;;;;10.37;2.17;;;2.90;99.90;;;;;;5328540;27;20523;-64
2022/01/30 04:24:28;;;;;;;15.50;2.17;;;3.00;99.90;;;;;;5329610;27;20146;-64
2022/01/30 04:26:55;;;;;;;10.57;1.93;;;3.20;99.90;;;;;;5331506;26;20113;-64
2022/01/30 04:29:23;;;;;;;8.17;1.97;;;3.30;99.90;;;;;;5328716;27;20177;-64
2022/01/30 04:31:50;;;;;;;6.63;1.80;;;3.40;99.90;;;;;;5330892;26;20125;-64
2022/01/30 04:34:19;;;;;;;11.10;2.07;;;3.50;99.90;;;;;;5329352;27;20164;-64
2022/01/30 04:37:03;;;;;;;10.53;2.37;;;3.60;99.90;;;;;;5330642;27;20444;-64
2022/01/30 04:40:02;;;;;;;6.70;1.57;;;3.60;99.90;;;;;;5328133;27;20510;-66
2022/01/30 04:57:19;;;;;;;5.33;1.50;;;4.00;99.90;;;;;;5332658;27;20491;-65
2022/01/30 04:59:15;;;;;;;7.40;1.63;;;4.10;99.90;;;;;;5323064;27;20435;-64
2022/01/30 05:04:30;;;;;;;12.63;2.00;;;4.10;99.90;;;;;;5330178;27;20179;-65
2022/01/30 05:09:28;;;;;;;10.87;1.67;;;4.20;99.90;;;;;;5330254;27;20191;-65
2022/01/30 05:11:55;;;;;;;9.80;1.73;;;4.20;99.90;;;;;;5332279;26;20125;-65
2022/01/30 05:14:26;;;;;;;3.23;1.30;;;4.20;99.90;;;;;;5332501;27;20142;-66
2022/01/30 05:16:53;;;;;;;5.50;1.50;;;4.20;99.90;;;;;;5329915;27;20166;-66
2022/01/30 05:19:21;;;;;;;8.03;2.10;;;4.20;99.90;;;;;;5330579;27;20521;-65
2022/01/30 05:21:48;;;;;;;5.83;1.90;;;4.30;99.90;;;;;;5331132;27;20531;-65
2022/01/30 05:24:16;;;;;;;6.93;1.63;;;4.30;99.90;;;;;;5332614;26;20152;-65
2022/01/30 05:26:45;;;;;;;7.03;1.50;;;4.40;99.90;;;;;;5330034;27;20213;-65
2022/01/30 05:29:14;;;;;;;5.23;1.70;;;4.30;99.90;;;;;;5332333;27;20196;-65
2022/01/30 05:31:43;;;;;;;5.60;1.33;;;4.40;99.90;;;;;;5329821;27;20145;-66
2022/01/30 05:34:12;;;;;;;8.50;1.60;;;4.40;99.90;;;;;;5329994;27;20137;-65
2022/01/30 05:36:40;;;;;;;5.23;1.30;;;4.30;99.90;;;;;;5329559;27;20526;-65
2022/01/30 05:39:09;;;;;;;8.63;1.73;;;4.00;99.90;;;;;;5331631;26;20137;-65
2022/01/30 05:41:36;;;;;;;10.27;2.00;;;3.90;99.90;;;;;;5329453;27;20148;-65
2022/01/30 05:44:11;;;;;;;7.67;1.60;;;3.80;99.90;;;;;;5330077;27;20511;-66
2022/01/30 05:46:46;;;;;;;8.77;1.73;;;3.90;99.90;;;;;;5330274;27;20389;-65
2022/01/30 05:49:14;;;;;;;6.10;1.53;;;3.90;99.90;;;;;;5330290;27;20534;-66
2022/01/30 05:52:02;;;;;;;9.97;1.60;;;3.90;99.90;;;;;;5330136;27;20188;-65
2022/01/30 05:54:29;;;;;;;7.97;1.33;;;4.00;99.90;;;;;;5331706;26;20379;-66
2022/01/30 05:57:01;;;;;;;8.70;1.67;;;4.00;99.90;;;;;;5330482;27;20145;-66
2022/01/30 05:59:32;;;;;;;9.13;1.90;;;4.00;99.90;;;;;;5329669;27;20171;-66
2022/01/30 06:02:00;;;;;;;8.17;1.60;;;4.00;99.90;;;;;;5329460;27;20182;-66
2022/01/30 06:04:30;;;;;;;12.63;1.90;;;4.00;99.90;;;;;;5330179;27;20487;-66
2022/01/30 06:07:01;;;;;;;5.83;1.70;;;4.10;99.90;;;;;;5329366;27;20401;-65
2022/01/30 06:09:29;;;;;;;8.07;2.17;;;4.10;99.90;;;;;;5331596;27;20137;-65
2022/01/30 06:11:56;;;;;;;5.73;1.50;;;4.10;99.90;;;;;;5332411;27;20130;-65
2022/01/30 06:14:24;;;;;;;9.67;1.93;;;4.10;99.90;;;;;;5329202;27;20151;-66
2022/01/30 06:16:53;;;;;;;8.03;1.80;;;4.10;99.90;;;;;;5329746;27;20175;-65
2022/01/30 06:20:05;;;;;;;10.00;1.73;;;4.00;99.90;;;;;;5329892;27;20486;-66
2022/01/30 06:22:32;;;;;;;3.83;1.50;;;4.00;99.90;;;;;;5263313;27;20274;-65
2022/01/30 06:25:02;;;;;;;11.23;3.10;;;4.00;99.90;;;;;;5244937;27;20184;-65
2022/01/30 06:27:29;;;;;;;8.67;1.80;;;4.00;99.90;;;;;;5244377;27;20161;-66
2022/01/30 06:29:56;;;;;;;9.47;1.97;;;4.00;99.90;;;;;;5244482;27;20504;-65
2022/01/30 06:32:26;;;;;;;7.63;2.03;;;4.00;99.90;;;;;;5263677;27;20178;-65
2022/01/30 06:34:54;;;;;;;6.53;1.93;;;4.00;99.90;;;;;;5263198;27;20131;-66
2022/01/30 06:37:22;;;;;;;8.17;1.80;;;3.90;99.90;;;;;;5244340;27;20204;-66
2022/01/30 06:39:49;;;;;;;6.57;1.70;;;3.90;99.90;;;;;;5245394;27;20208;-65
2022/01/30 06:42:16;;;;;;;7.83;1.70;;;3.90;99.90;;;;;;5243946;27;20142;-65
2022/01/30 06:44:44;;;;;;;7.20;1.60;;;3.80;99.90;;;;;;5245732;27;20547;-65
2022/01/30 06:47:12;;;;;;;6.87;1.57;;;3.80;99.90;;;;;;5262782;27;20367;-65
2022/01/30 06:49:51;;;;;;;6.03;2.03;;;3.70;99.90;;;;;;5243405;27;20164;-65
2022/01/30 06:52:24;;;;;;;6.67;1.73;;;3.70;99.90;;;;;;5244194;27;20161;-65
2022/01/30 06:54:51;;;;;;;9.70;1.50;;;3.60;99.90;;;;;;5245627;27;20197;-65
2022/01/30 06:57:18;;;;;;;7.33;1.50;;;3.60;99.90;;;;;;5273978;27;20382;-65
2022/01/30 06:59:45;;;;;;;6.30;1.70;;;3.60;99.90;;;;;;5330843;26;20116;-65
2022/01/30 07:02:12;;;;;;;5.63;1.60;;;3.60;99.90;;;;;;5328909;27;20262;-66
2022/01/30 07:04:40;;;;;;;5.17;1.77;;;3.60;99.90;;;;;;5329147;27;20196;-66
2022/01/30 07:07:11;;;;;;;7.33;1.70;;;3.60;99.90;;;;;;5328966;27;20180;-66
2022/01/30 07:09:38;;;;;;;7.70;1.70;;;3.60;99.90;;;;;;5328492;27;20178;-66
2022/01/30 07:12:05;;;;;;;6.17;1.90;;;3.70;99.90;;;;;;5329290;27;20185;-65
2022/01/30 07:14:41;;;;;;;6.87;1.43;;;3.70;99.90;;;;;;5328794;27;20224;-65
2022/01/30 07:17:17;;;;;;;6.50;1.70;;;3.80;99.90;;;;;;5330211;27;20148;-66
2022/01/30 07:19:55;;;;;;;4.10;1.43;;;3.80;99.90;;;;;;5331700;27;20114;-66
2022/01/30 07:22:23;;;;;;;7.30;1.77;;;3.80;99.90;;;;;;5330331;26;20180;-66
2022/01/30 07:24:50;;;;;;;7.20;1.60;;;3.80;99.90;;;;;;5328537;27;20531;-65
2022/01/30 07:27:17;;;;;;;8.23;1.80;;;3.80;99.90;;;;;;5328757;27;20509;-66
2022/01/30 07:29:48;;;;;;;6.33;1.80;;;3.80;99.90;;;;;;5329024;27;20141;-67
2022/01/30 07:32:16;;;;;;;6.50;1.83;;;3.80;99.90;;;;;;5329121;27;20153;-66
2022/01/30 07:34:49;;;;;;;4.93;1.60;;;3.80;99.90;;;;;;5331017;26;20114;-66
2022/01/30 07:37:18;;;;;;;6.20;1.63;;;3.80;99.90;;;;;;5328140;27;20414;-65
2022/01/30 07:39:48;;;;;;;4.73;1.80;;;3.70;99.90;;;;;;5330083;26;20149;-65
2022/01/30 07:42:21;;;;;;;5.23;1.50;;;3.50;99.90;;;;;;5330934;27;20109;-65
2022/01/30 07:44:48;;;;;;;6.77;1.53;;;3.30;99.90;;;;;;5328518;27;20251;-65
2022/01/30 07:47:24;;;;;;;6.10;1.20;;;3.10;99.90;;;;;;5330452;26;20403;-66
2022/01/30 07:49:52;;;;;;;6.17;1.57;;;2.80;99.90;;;;;;5330287;27;20145;-65
2022/01/30 07:52:20;;;;;;;4.83;1.60;;;2.50;99.90;;;;;;5329573;27;20149;-65
2022/01/30 07:54:49;;;;;;;3.33;1.50;;;2.30;99.90;;;;;;5328859;27;20365;-65
2022/01/30 07:57:18;;;;;;;6.27;1.60;;;2.00;99.90;;;;;;5328316;27;20148;-65
2022/01/30 07:59:46;;;;;;;6.00;1.63;;;1.70;99.90;;;;;;5328510;27;20498;-64
2022/01/30 08:02:13;;;;;;;4.70;1.40;;;1.60;99.90;;;;;;5328465;27;20168;-65
2022/01/30 08:04:43;;;;;;;3.67;1.70;;;1.60;99.90;;;;;;5331103;27;20189;-64
2022/01/30 08:07:10;;;;;;;5.23;1.60;;;1.60;99.90;;;;;;5330683;26;20137;-64
2022/01/30 08:09:37;;;;;;;5.53;1.43;;;1.70;99.90;;;;;;5330898;27;20117;-64
2022/01/30 08:12:05;;;;;;;3.57;1.60;;;1.70;99.90;;;;;;5329731;27;20405;-64
2022/01/30 08:14:32;;;;;;;2.60;1.30;;;1.70;99.90;;;;;;5329413;27;20140;-64
2022/01/30 08:16:59;;;;;;;5.30;1.53;;;1.80;99.90;;;;;;5328814;27;20179;-64
2022/01/30 08:19:26;;;;;;;3.20;1.50;;;1.80;99.90;;;;;;5329529;27;20199;-64
2022/01/30 08:22:00;;;;;;;1.87;1.27;;;1.80;99.90;;;;;;5329892;27;20166;-64
2022/01/30 08:24:27;;;;;;;1.83;0.93;;;1.80;99.90;;;;;;5329485;27;20145;-65
2022/01/30 08:26:54;;;;;;;3.30;1.30;;;1.70;99.90;;;;;;5328715;27;20176;-64
2022/01/30 08:29:23;;;;;;;2.67;1.20;;;1.60;99.90;;;;;;5329001;27;20417;-64
2022/01/30 08:31:50;;;;;;;2.30;1.27;;;1.50;99.90;;;;;;5329832;27;20395;-64
2022/01/30 08:34:18;;;;;;;5.73;1.87;;;1.40;99.90;;;;;;5328296;27;20157;-64
2022/01/30 08:36:45;;;;;;;2.93;1.80;;;1.40;99.90;;;;;;5329655;27;20156;-64
2022/01/30 08:39:12;;;;;;;2.67;1.40;;;1.50;99.90;;;;;;5329774;27;20141;-64
2022/01/30 08:41:39;;;;;;;4.47;1.40;;;1.60;99.90;;;;;;5328458;27;20411;-64
2022/01/30 08:44:06;;;;;;;2.97;1.23;;;1.70;99.90;;;;;;5328341;27;20533;-64
2022/01/30 08:46:33;;;;;;;2.13;1.10;;;1.70;99.90;;;;;;5328343;27;20462;-64
2022/01/30 08:49:00;;;;;;;3.23;1.10;;;1.80;99.90;;;;;;5329110;27;20376;-64
2022/01/30 08:51:28;;;;;;;1.83;1.00;;;1.80;99.90;;;;;;5327899;27;20141;-64
2022/01/30 08:53:55;;;;;;;2.40;0.90;;;1.70;99.90;;;;;;5329014;27;20537;-64
2022/01/30 08:56:22;;;;;;;2.63;1.00;;;1.50;99.90;;;;;;5328518;27;20480;-64
2022/01/30 08:58:50;;;;;;;2.70;0.83;;;1.30;99.90;;;;;;5329283;27;20380;-64
2022/01/30 09:01:17;;;;;;;0.80;0.70;;;1.20;99.90;;;;;;5329009;27;20149;-64
2022/01/30 09:03:44;;;;;;;2.43;0.80;;;1.20;99.90;;;;;;5329753;26;20479;-65
2022/01/30 09:06:11;;;;;;;1.57;0.90;;;1.10;99.90;;;;;;5329241;27;20185;-64
2022/01/30 09:08:38;;;;;;;1.80;0.80;;;1.20;99.90;;;;;;5328198;27;20188;-64
2022/01/30 09:11:08;;;;;;;1.83;1.00;;;1.40;99.90;;;;;;5329909;26;20138;-64
2022/01/30 09:13:35;;;;;;;3.07;1.20;;;1.50;99.90;;;;;;5327969;27;20387;-64
2022/01/30 09:16:03;;;;;;;3.83;1.30;;;1.60;99.90;;;;;;5328181;27;20168;-64
2022/01/30 09:18:30;;;;;;;2.30;1.80;;;1.70;99.90;;;;;;5328542;27;20141;-64
2022/01/30 09:20:58;;;;;;;3.33;2.00;;;1.80;99.90;;;;;;5329467;27;20155;-64
2022/01/30 09:23:25;;;;;;;3.20;2.10;;;1.80;99.90;;;;;;5327616;27;20211;-64
2022/01/30 09:25:52;;;;;;;7.70;2.00;;;1.90;99.90;;;;;;5329517;27;20424;-64
2022/01/30 09:28:19;;;;;;;3.37;2.10;;;1.90;99.90;;;;;;5327977;27;20192;-64
2022/01/30 09:30:46;;;;;;;5.70;2.27;;;2.10;99.90;;;;;;5330967;27;20382;-64
2022/01/30 09:33:14;;;;;;;2.70;1.83;;;2.10;99.90;;;;;;5330804;27;20118;-64
2022/01/30 09:35:41;;;;;;;3.30;1.90;;;2.10;99.90;;;;;;5332014;27;20149;-64
2022/01/30 09:38:08;;;;;;;5.23;2.00;;;2.20;99.90;;;;;;5329779;27;20149;-64
2022/01/30 09:40:35;;;;;;;4.47;2.10;;;2.30;99.90;;;;;;5329085;27;20154;-64
2022/01/30 09:43:02;;;;;;;4.37;2.23;;;2.30;99.90;;;;;;5328831;27;20559;-66
2022/01/30 09:45:30;;;;;;;6.00;2.00;;;2.30;99.90;;;;;;5330420;27;20365;-64
2022/01/30 09:47:58;;;;;;;4.47;2.20;;;2.30;99.90;;;;;;5330568;27;20180;-64
2022/01/30 09:50:27;;;;;;;4.80;2.10;;;2.40;99.90;;;;;;5331491;27;20145;-64
2022/01/30 09:52:54;;;;;;;4.93;1.80;;;2.40;99.90;;;;;;5331886;26;20202;-64
2022/01/30 09:55:22;;;;;;;5.43;1.83;;;2.50;99.90;;;;;;5329970;27;20137;-64
2022/01/30 09:57:49;;;;;;;5.13;1.80;;;2.50;99.90;;;;;;5329839;27;20168;-64
2022/01/30 10:00:17;;;;;;;6.17;2.10;;;2.50;99.90;;;;;;5331600;26;20141;-64
2022/01/30 10:02:44;;;;;;;4.80;1.70;;;2.50;99.90;;;;;;5328807;27;20491;-64
2022/01/30 10:05:14;;;;;;;6.20;2.20;;;2.50;99.90;;;;;;5329552;27;20137;-64
2022/01/30 10:07:45;;;;;;;9.10;2.13;;;2.50;99.90;;;;;;5330055;27;20190;-64
2022/01/30 10:10:16;;;;;;;4.40;2.03;;;2.50;99.90;;;;;;5330664;27;20133;-64
2022/01/30 10:13:11;;;;;;;7.47;2.27;;;2.60;99.90;;;;;;5311352;27;20168;-64
2022/01/30 10:15:54;;;;;;;6.23;2.10;;;2.60;99.90;;;;;;5331737;27;20148;-64
2022/01/30 10:18:21;;;;;;;5.43;2.30;;;2.60;99.90;;;;;;5331525;27;20205;-64
2022/01/30 10:20:49;;;;;;;7.53;2.40;;;2.60;99.90;;;;;;5330173;27;20182;-64
2022/01/30 10:23:16;;;;;;;7.07;2.47;;;2.60;99.90;;;;;;5329176;27;20133;-64
2022/01/30 10:25:54;;;;;;;10.17;2.77;;;2.60;99.90;;;;;;5329872;27;20152;-64
2022/01/30 10:28:31;;;;;;;9.30;2.30;;;2.70;99.90;;;;;;5329661;27;20152;-64
2022/01/30 10:31:04;;;;;;;8.17;2.37;;;2.70;99.90;;;;;;5330422;27;20145;-64
2022/01/30 10:33:42;;;;;;;10.53;3.17;;;2.70;99.90;;;;;;5329478;27;20189;-65
2022/01/30 10:36:11;;;;;;;9.93;2.80;;;2.70;99.90;;;;;;5329155;27;20151;-64
2022/01/30 10:38:49;;;;;;;9.70;2.33;;;2.80;99.90;;;;;;5329828;27;20159;-64
2022/01/30 10:41:22;;;;;;;9.43;2.87;;;2.80;99.90;;;;;;5331114;27;20393;-64
2022/01/30 10:44:03;;;;;;;7.97;2.47;;;2.80;99.90;;;;;;5328715;27;20141;-64
2022/01/30 10:46:33;;;;;;;8.10;2.10;;;2.80;99.90;;;;;;5328517;27;20160;-65
2022/01/30 10:49:08;;;;;;;6.63;2.40;;;2.80;99.90;;;;;;5331301;27;20244;-65
2022/01/30 10:51:35;;;;;;;6.97;2.10;;;2.70;99.90;;;;;;5330363;27;20169;-65
2022/01/30 10:54:11;;;;;;;8.17;2.30;;;2.70;99.90;;;;;;5330976;26;20152;-65
2022/01/30 10:56:39;;;;;;;6.63;2.50;;;2.70;99.90;;;;;;5329519;27;20141;-64
2022/01/30 10:59:09;;;;;;;6.73;2.93;;;2.60;99.90;;;;;;5331127;26;20373;-64
2022/01/30 11:01:47;;;;;;;7.60;2.87;;;2.60;99.90;;;;;;5329646;27;20560;-64
2022/01/30 11:04:26;;;;;;;11.97;3.10;;;2.50;99.90;;;;;;5328790;27;20406;-65
2022/01/30 11:06:54;;;;;;;12.93;2.80;;;2.50;99.90;;;;;;5329130;27;20173;-64
2022/01/30 11:09:28;;;;;;;12.37;3.10;;;2.50;99.90;;;;;;5330459;27;20167;-65
2022/01/30 11:14:52;;;;;;;13.67;3.27;;;2.50;99.90;;;;;;5328846;27;20352;-65
2022/01/30 11:17:22;;;;;;;9.00;2.77;;;2.60;99.90;;;;;;5330471;26;20118;-65
2022/01/30 11:19:56;;;;;;;10.43;3.23;;;2.60;99.90;;;;;;5328916;27;20391;-65
2022/01/30 11:22:23;;;;;;;9.80;3.30;;;2.60;99.90;;;;;;5328606;27;20145;-65
2022/01/30 11:25:05;;;;;;;12.93;3.40;;;2.60;99.90;;;;;;5328635;27;20145;-65
2022/01/30 11:27:33;;;;;;;10.17;3.07;;;2.70;99.90;;;;;;5329165;27;20499;-65
2022/01/30 11:30:02;;;;;;;13.20;3.73;;;2.70;99.90;;;;;;5329690;27;20136;-65
2022/01/30 11:32:29;;;;;;;13.90;3.50;;;2.70;99.90;;;;;;5329550;27;20373;-65
2022/01/30 11:34:57;;;;;;;9.97;3.23;;;2.70;99.90;;;;;;5328937;27;20212;-65
2022/01/30 11:37:30;;;;;;;10.70;3.20;;;2.80;99.90;;;;;;5328942;27;20149;-65
2022/01/30 11:40:17;;;;;;;10.80;2.87;;;2.90;99.90;;;;;;5330088;27;20207;-65
2022/01/30 11:42:48;;;;;;;9.87;2.37;;;3.00;99.90;;;;;;5329830;27;20142;-65
2022/01/30 11:45:27;;;;;;;8.37;2.30;;;3.00;99.90;;;;;;5331219;26;20238;-65
2022/01/30 11:48:12;;;;;;;7.67;2.60;;;3.10;99.90;;;;;;5330374;27;20434;-64
2022/01/30 11:50:39;;;;;;;10.53;3.10;;;3.10;99.90;;;;;;5330172;27;20149;-65
2022/01/30 11:53:08;;;;;;;11.37;2.50;;;3.10;99.90;;;;;;5330107;26;20113;-65
2022/01/30 11:55:54;;;;;;;5.17;2.33;;;3.10;99.90;;;;;;5330309;26;20145;-65
2022/01/30 11:58:33;;;;;;;8.00;2.77;;;3.20;99.90;;;;;;5329198;27;20133;-65
2022/01/30 12:01:26;;;;;;;6.30;2.40;;;3.20;99.90;;;;;;5330900;27;20192;-65
2022/01/30 12:04:06;;;;;;;7.67;2.30;;;3.30;99.90;;;;;;5329960;27;20150;-65
2022/01/30 12:06:43;;;;;;;7.53;2.57;;;3.30;99.90;;;;;;5329018;27;20181;-64
2022/01/30 12:09:19;;;;;;;8.03;2.20;;;3.30;99.90;;;;;;5330860;27;20136;-65
2022/01/30 12:11:49;;;;;;;5.40;2.20;;;3.30;99.90;;;;;;5328867;27;20136;-65
2022/01/30 12:14:22;;;;;;;7.40;2.80;;;3.30;99.90;;;;;;5328677;27;20137;-65
2022/01/30 12:17:00;;;;;;;8.67;2.50;;;3.30;99.90;;;;;;5329449;27;20183;-65
2022/01/30 12:19:30;;;;;;;6.10;2.43;;;3.30;99.90;;;;;;5311118;27;20152;-64
2022/01/30 12:22:20;;;;;;;8.50;2.50;;;3.30;99.90;;;;;;5329130;27;20197;-65
2022/01/30 12:24:49;;;;;;;4.73;2.30;;;3.20;99.90;;;;;;5329783;27;20185;-65
2022/01/30 12:27:17;;;;;;;7.50;2.43;;;3.20;99.90;;;;;;5329206;27;20141;-65
2022/01/30 12:29:50;;;;;;;6.57;2.40;;;3.20;99.90;;;;;;5329937;27;20152;-65
2022/01/30 12:32:21;;;;;;;4.53;2.03;;;3.10;99.90;;;;;;5329852;27;20161;-64
2022/01/30 12:35:00;;;;;;;7.83;2.60;;;3.00;99.90;;;;;;5328163;27;20152;-64
2022/01/30 12:37:37;;;;;;;5.33;2.00;;;2.90;99.90;;;;;;5330781;27;20168;-64
2022/01/30 12:40:31;;;;;;;4.50;2.20;;;2.70;99.90;;;;;;5328798;27;20168;-64
2022/01/30 12:43:02;;;;;;;6.83;2.37;;;2.50;99.90;;;;;;5326849;27;20172;-65
2022/01/30 12:45:29;;;;;;;6.27;2.40;;;2.40;99.90;;;;;;5330174;27;20124;-64
2022/01/30 12:48:09;;;;;;;5.23;2.50;;;2.40;99.90;;;;;;5328761;27;20141;-65
2022/01/30 12:50:37;;;;;;;5.27;2.57;;;2.40;99.90;;;;;;5329341;27;20161;-65
2022/01/30 12:53:07;;;;;;;3.67;2.40;;;2.50;99.90;;;;;;5329441;27;20159;-65
2022/01/30 12:55:34;;;;;;;3.57;2.50;;;2.50;99.90;;;;;;5328410;27;20137;-65
2022/01/30 12:58:02;;;;;;;4.37;2.43;;;2.60;99.90;;;;;;5329696;27;20141;-65
2022/01/30 13:00:39;;;;;;;4.83;2.27;;;2.60;99.90;;;;;;5329180;27;20149;-64
2022/01/30 13:03:07;;;;;;;3.23;1.90;;;2.60;99.90;;;;;;5330990;26;20125;-65
2022/01/30 13:05:44;;;;;;;3.57;1.90;;;2.60;99.90;;;;;;5328442;27;20183;-64
2022/01/30 13:08:11;;;;;;;4.67;2.40;;;2.60;99.90;;;;;;5329311;27;20153;-65
2022/01/30 13:10:38;;;;;;;4.87;2.50;;;2.70;99.90;;;;;;5328855;27;20177;-65
2022/01/30 13:13:08;;;;;;;4.63;2.40;;;2.60;99.90;;;;;;5329049;27;20386;-64
2022/01/30 13:15:38;;;;;;;6.43;2.63;;;2.70;99.90;;;;;;5329871;27;20175;-65
2022/01/30 13:18:08;;;;;;;3.13;2.33;;;2.70;99.90;;;;;;5329350;27;20184;-65
2022/01/30 13:20:35;;;;;;;5.07;2.20;;;2.70;99.90;;;;;;5331228;26;20156;-65
2022/01/30 13:23:03;;;;;;;4.43;2.50;;;2.70;99.90;;;;;;5330978;27;20171;-65
2022/01/30 13:25:30;;;;;;;3.20;2.20;;;2.80;99.90;;;;;;5329846;27;20140;-64
2022/01/30 13:27:59;;;;;;;6.27;2.47;;;2.90;99.90;;;;;;5330050;27;20137;-65
2022/01/30 13:30:43;;;;;;;3.93;2.00;;;2.90;99.90;;;;;;5328853;27;20161;-64
2022/01/30 13:33:19;;;;;;;4.17;2.50;;;3.00;99.90;;;;;;5329707;27;20216;-65
2022/01/30 13:35:47;;;;;;;2.70;1.80;;;3.00;99.90;;;;;;5329496;27;20137;-65
2022/01/30 13:38:14;;;;;;;3.83;2.30;;;3.00;99.90;;;;;;5333426;27;20156;-65
2022/01/30 13:40:57;;;;;;;3.07;1.90;;;3.10;99.90;;;;;;5329900;27;20158;-65
2022/01/30 13:43:33;;;;;;;3.07;1.77;;;3.10;99.90;;;;;;5329707;27;20215;-65
2022/01/30 13:49:03;;;;;;;1.73;1.50;;;3.10;99.90;;;;;;5312863;27;20503;-65
2022/01/30 13:52:09;;;;;;;4.20;1.60;;;3.20;99.90;;;;;;5329653;27;20184;-65
2022/01/30 13:54:32;;;;;;;1.60;1.30;;;3.10;99.90;;;;;;5326773;27;20156;-65
2022/01/30 13:57:04;;;;;;;1.43;0.90;;;3.20;99.90;;;;;;5330001;27;20189;-65
2022/01/30 13:59:32;;;;;;;3.23;1.10;;;3.20;99.90;;;;;;5329752;27;20172;-64
2022/01/30 14:02:19;;;;;;;2.10;1.10;;;3.20;99.90;;;;;;5330601;26;20142;-65
2022/01/30 14:04:46;;;;;;;2.53;1.10;;;3.20;99.90;;;;;;5331375;27;20160;-65
2022/01/30 14:07:24;;;;;;;2.83;1.40;;;3.20;99.90;;;;;;5327728;27;20165;-65
2022/01/30 14:09:53;;;;;;;1.40;0.90;;;3.20;99.90;;;;;;5329313;27;20182;-64